createdAt,value
2022-11-02T00:01:16.269Z,3.87
2022-11-02T00:03:44.496Z,4.20
2022-11-02T00:06:12.651Z,3.60
2022-11-02T00:08:40.818Z,3.50
2022-11-02T00:11:10.384Z,3.73
2022-11-02T00:13:38.770Z,3.10
2022-11-02T00:16:11.931Z,3.20
2022-11-02T00:18:40.531Z,3.17
2022-11-02T00:21:08.673Z,4.50
2022-11-02T00:23:36.793Z,3.20
2022-11-02T00:26:05.083Z,3.10
2022-11-02T00:28:34.652Z,2.57
2022-11-02T00:31:03.136Z,3.97
2022-11-02T00:33:31.712Z,2.90
2022-11-02T00:35:59.914Z,3.10
2022-11-02T00:38:28.005Z,2.43
2022-11-02T00:40:56.071Z,3.30
2022-11-02T00:43:24.246Z,3.20
2022-11-02T00:45:53.726Z,3.43
2022-11-02T00:48:23.582Z,3.30
2022-11-02T00:50:51.782Z,3.63
2022-11-02T00:53:22.001Z,2.87
2022-11-02T00:55:54.041Z,3.30
2022-11-02T00:58:22.557Z,3.23
2022-11-02T01:00:53.439Z,3.30
2022-11-02T01:03:21.522Z,3.20
2022-11-02T01:05:50.113Z,3.20
2022-11-02T01:08:18.313Z,3.27
2022-11-02T01:10:48.284Z,3.30
2022-11-02T01:13:18.277Z,2.83
2022-11-02T01:15:46.384Z,2.80
2022-11-02T01:18:15.859Z,3.60
2022-11-02T01:20:44.160Z,2.90
2022-11-02T01:23:13.458Z,3.10
2022-11-02T01:25:46.884Z,3.47
2022-11-02T01:28:15.053Z,3.47
2022-11-02T01:30:43.204Z,3.87
2022-11-02T01:33:12.866Z,3.97
2022-11-02T01:35:43.092Z,3.40
2022-11-02T01:38:11.208Z,4.00
2022-11-02T01:40:40.153Z,3.97
2022-11-02T01:43:25.673Z,3.00
2022-11-02T01:45:56.957Z,3.70
2022-11-02T01:48:30.132Z,3.20
2022-11-02T01:51:02.809Z,3.27
2022-11-02T01:53:32.478Z,3.80
2022-11-02T01:56:02.127Z,3.50
2022-11-02T01:58:30.763Z,3.80
2022-11-02T02:00:58.894Z,5.30
2022-11-02T02:03:28.022Z,3.63
2022-11-02T02:06:02.837Z,3.77
2022-11-02T02:08:32.243Z,3.50
2022-11-02T02:11:00.775Z,3.33
2022-11-02T02:13:30.313Z,3.60
2022-11-02T02:16:12.494Z,3.30
2022-11-02T02:18:46.160Z,4.60
2022-11-02T02:21:27.704Z,3.00
2022-11-02T02:24:21.937Z,4.63
2022-11-02T02:27:13.449Z,3.80
2022-11-02T02:29:53.473Z,3.77
2022-11-02T02:32:29.686Z,4.37
2022-11-02T02:38:04.166Z,3.77
2022-11-02T02:40:37.349Z,3.67
2022-11-02T02:43:09.688Z,3.53
2022-11-02T02:45:44.594Z,4.57
2022-11-02T02:48:16.604Z,3.57
2022-11-02T02:50:49.706Z,4.20
2022-11-02T02:53:22.837Z,4.87
2022-11-02T02:55:52.802Z,6.13
2022-11-02T02:58:23.873Z,3.00
2022-11-02T03:00:54.343Z,3.80
2022-11-02T03:03:26.387Z,4.40
2022-11-02T03:06:06.000Z,4.40
2022-11-02T03:08:39.594Z,3.50
2022-11-02T03:11:15.064Z,3.07
2022-11-02T03:13:54.889Z,3.83
2022-11-02T03:16:38.576Z,3.17
2022-11-02T03:19:19.077Z,3.40
2022-11-02T03:21:54.599Z,3.30
2022-11-02T03:24:30.861Z,4.00
2022-11-02T03:27:09.864Z,3.50
2022-11-02T03:29:42.016Z,3.00
2022-11-02T03:32:21.337Z,3.13
2022-11-02T03:34:53.753Z,4.27
2022-11-02T03:37:26.771Z,3.53
2022-11-02T03:39:59.048Z,3.47
2022-11-02T03:42:29.240Z,3.47
2022-11-02T03:45:02.170Z,3.30
2022-11-02T03:47:34.819Z,3.70
2022-11-02T03:50:08.351Z,3.17
2022-11-02T03:52:40.582Z,3.50
2022-11-02T03:55:13.436Z,3.23
2022-11-02T03:57:44.632Z,3.23
2022-11-02T04:00:16.369Z,2.67
2022-11-02T04:02:56.154Z,3.07
2022-11-02T04:05:30.136Z,3.13
2022-11-02T04:08:18.048Z,2.87
2022-11-02T04:11:00.173Z,3.17
2022-11-02T04:13:45.849Z,2.77
2022-11-02T04:16:14.077Z,2.93
2022-11-02T04:19:02.301Z,3.30
2022-11-02T04:21:31.740Z,3.00
2022-11-02T04:24:18.780Z,2.83
2022-11-02T04:26:47.564Z,2.80
2022-11-02T04:29:16.228Z,2.57
2022-11-02T04:31:45.172Z,2.90
2022-11-02T04:34:15.907Z,2.93
2022-11-02T04:36:44.558Z,3.40
2022-11-02T04:39:12.284Z,2.90
2022-11-02T04:41:43.327Z,3.23
2022-11-02T04:44:20.802Z,3.00
2022-11-02T04:46:58.033Z,2.60
2022-11-02T04:49:30.237Z,3.17
2022-11-02T04:51:58.434Z,3.47
2022-11-02T04:54:27.614Z,2.63
2022-11-02T04:56:59.656Z,2.57
2022-11-02T04:59:29.764Z,2.77
2022-11-02T05:01:58.900Z,2.97
2022-11-02T05:04:29.022Z,3.07
2022-11-02T05:07:01.379Z,5.87
2022-11-02T05:09:32.008Z,2.60
2022-11-02T05:12:01.773Z,2.90
2022-11-02T05:14:29.893Z,2.40
2022-11-02T05:16:59.401Z,2.00
2022-11-02T05:19:29.356Z,2.97
2022-11-02T05:21:57.505Z,2.10
2022-11-02T05:24:26.628Z,3.03
2022-11-02T05:26:54.770Z,2.17
2022-11-02T05:29:25.882Z,2.77
2022-11-02T05:31:54.533Z,2.13
2022-11-02T05:34:23.070Z,2.40
2022-11-02T05:36:52.749Z,2.70
2022-11-02T05:39:23.407Z,2.30
2022-11-02T05:41:51.907Z,3.07
2022-11-02T05:44:20.300Z,2.20
2022-11-02T05:46:48.661Z,2.50
2022-11-02T05:49:17.056Z,2.60
2022-11-02T05:51:45.490Z,3.17
2022-11-02T05:54:15.276Z,2.33
2022-11-02T05:56:43.475Z,2.70
2022-11-02T05:59:11.601Z,2.53
2022-11-02T06:01:40.093Z,2.67
2022-11-02T06:04:08.432Z,1.80
2022-11-02T06:06:36.565Z,2.20
2022-11-02T06:09:07.356Z,2.57
2022-11-02T06:11:37.323Z,2.60
2022-11-02T06:14:05.864Z,2.13
2022-11-02T06:16:33.996Z,2.27
2022-11-02T06:19:02.146Z,2.07
2022-11-02T06:21:30.334Z,2.43
2022-11-02T06:23:59.346Z,2.27
2022-11-02T06:26:27.555Z,2.20
2022-11-02T06:28:57.228Z,3.77
2022-11-02T06:31:25.504Z,4.40
2022-11-02T06:33:53.672Z,3.10
2022-11-02T06:36:21.907Z,2.90
2022-11-02T06:38:51.167Z,3.50
2022-11-02T06:41:19.259Z,3.30
2022-11-02T06:43:47.334Z,3.00
2022-11-02T06:46:16.808Z,4.77
2022-11-02T06:48:47.665Z,5.83
2022-11-02T06:51:16.099Z,5.90
2022-11-02T06:53:44.427Z,6.27
2022-11-02T06:56:13.356Z,6.90
2022-11-02T06:58:41.444Z,5.80
2022-11-02T07:01:10.076Z,8.33
2022-11-02T07:03:39.713Z,8.17
2022-11-02T07:06:13.668Z,4.90
2022-11-02T07:08:42.824Z,6.60
2022-11-02T07:11:15.156Z,7.10
2022-11-02T07:13:43.783Z,6.93
2022-11-02T07:16:11.931Z,4.03
2022-11-02T07:18:41.815Z,9.10
2022-11-02T07:21:12.252Z,5.07
2022-11-02T07:23:40.404Z,5.20
2022-11-02T07:26:08.815Z,4.80
2022-11-02T07:28:38.449Z,4.77
2022-11-02T07:31:06.878Z,4.63
2022-11-02T07:33:35.334Z,6.63
2022-11-02T07:36:06.222Z,7.40
2022-11-02T07:38:35.046Z,4.53
2022-11-02T07:41:07.414Z,5.20
2022-11-02T07:43:38.744Z,3.80
2022-11-02T07:46:37.377Z,4.73
2022-11-02T07:49:06.193Z,7.23
2022-11-02T07:51:35.666Z,6.73
2022-11-02T07:54:03.765Z,5.93
2022-11-02T07:56:31.834Z,4.97
2022-11-02T07:58:59.886Z,3.87
2022-11-02T08:01:28.036Z,6.47
2022-11-02T08:03:56.907Z,3.03
2022-11-02T08:06:24.963Z,3.70
2022-11-02T08:08:54.431Z,5.77
2022-11-02T08:11:23.055Z,3.97
2022-11-02T08:13:51.181Z,5.60
2022-11-02T08:16:20.013Z,3.00
2022-11-02T08:18:48.113Z,7.53
2022-11-02T08:21:16.217Z,5.27
2022-11-02T08:23:44.289Z,5.47
2022-11-02T08:26:13.903Z,3.80
2022-11-02T08:28:42.145Z,6.67
2022-11-02T08:31:15.226Z,4.03
2022-11-02T08:33:43.415Z,5.10
2022-11-02T08:36:12.403Z,7.00
2022-11-02T08:38:40.524Z,4.10
2022-11-02T08:41:08.663Z,5.60
2022-11-02T08:43:38.142Z,5.00
2022-11-02T08:46:14.814Z,5.20
2022-11-02T08:48:44.023Z,4.03
2022-11-02T08:51:12.134Z,3.67
2022-11-02T08:53:40.244Z,5.47
2022-11-02T08:56:08.774Z,4.73
2022-11-02T08:58:38.203Z,3.50
2022-11-02T09:01:06.280Z,2.83
2022-11-02T09:03:34.368Z,4.60
2022-11-02T09:06:03.565Z,6.07
2022-11-02T09:08:33.201Z,3.60
2022-11-02T09:11:04.910Z,2.70
2022-11-02T09:13:33.114Z,4.00
2022-11-02T09:16:02.775Z,8.30
2022-11-02T09:18:31.539Z,5.13
2022-11-02T09:21:02.910Z,5.87
2022-11-02T09:23:32.244Z,3.00
2022-11-02T09:26:00.831Z,3.90
2022-11-02T09:28:29.127Z,2.80
2022-11-02T09:30:57.218Z,3.57
2022-11-02T09:33:26.733Z,4.80
2022-11-02T09:35:54.857Z,3.30
2022-11-02T09:38:23.095Z,4.70
2022-11-02T09:41:00.980Z,5.07
2022-11-02T09:43:40.480Z,3.07
2022-11-02T09:46:12.124Z,7.77
2022-11-02T09:48:44.034Z,3.70
2022-11-02T09:51:15.585Z,7.23
2022-11-02T09:53:53.765Z,3.50
2022-11-02T09:56:22.196Z,5.50
2022-11-02T09:58:56.817Z,2.20
2022-11-02T10:01:39.227Z,3.43
2022-11-02T10:04:34.918Z,7.73
2022-11-02T10:07:10.947Z,5.90
2022-11-02T10:09:50.306Z,2.43
2022-11-02T10:12:25.182Z,3.07
2022-11-02T10:15:00.021Z,3.47
2022-11-02T10:17:31.078Z,2.27
2022-11-02T10:20:06.683Z,6.60
2022-11-02T10:22:38.402Z,4.10
2022-11-02T10:25:08.603Z,8.07
2022-11-02T10:27:39.744Z,5.10
2022-11-02T10:30:12.786Z,8.40
2022-11-02T10:38:21.795Z,28.77
2022-11-02T10:41:06.597Z,23.30
2022-11-02T10:43:51.829Z,14.60
2022-11-02T10:46:43.912Z,11.13
2022-11-02T10:49:19.163Z,12.00
2022-11-02T10:51:48.646Z,14.93
2022-11-02T10:54:20.648Z,10.87
2022-11-02T10:56:53.666Z,11.23
2022-11-02T10:59:23.921Z,8.80
2022-11-02T11:02:11.000Z,8.63
2022-11-02T11:04:39.153Z,7.33
2022-11-02T11:07:15.037Z,5.73
2022-11-02T11:09:49.765Z,5.40
2022-11-02T11:12:22.269Z,10.20
2022-11-02T11:20:36.509Z,3.37
2022-11-02T11:23:22.172Z,5.60
2022-11-02T11:26:01.377Z,7.10
2022-11-02T11:28:32.999Z,10.17
2022-11-02T11:31:10.569Z,6.50
2022-11-02T11:33:47.431Z,4.63
2022-11-02T11:38:58.788Z,4.77
2022-11-02T11:41:27.041Z,3.93
2022-11-02T11:43:55.632Z,2.57
2022-11-02T11:46:24.115Z,5.70
2022-11-02T11:48:54.625Z,6.80
2022-11-02T11:51:29.108Z,4.17
2022-11-02T11:54:19.096Z,9.10
2022-11-02T11:56:48.089Z,4.40
2022-11-02T11:59:31.593Z,7.10
2022-11-02T12:02:01.813Z,2.90
2022-11-02T12:04:32.611Z,1.80
2022-11-02T12:07:24.519Z,3.90
2022-11-02T12:10:03.433Z,5.70
2022-11-02T12:12:44.784Z,4.87
2022-11-02T12:15:28.081Z,4.47
2022-11-02T12:18:09.809Z,5.30
2022-11-02T12:20:54.332Z,3.00
2022-11-02T12:23:36.371Z,3.80
2022-11-02T12:26:17.809Z,2.40
2022-11-02T12:28:55.439Z,2.63
2022-11-02T12:31:34.307Z,4.70
2022-11-02T12:34:20.826Z,4.87
2022-11-02T12:40:03.306Z,4.00
2022-11-02T12:42:39.226Z,1.90
2022-11-02T12:45:22.890Z,5.20
2022-11-02T12:47:58.185Z,2.33
2022-11-02T12:50:45.706Z,5.70
2022-11-02T12:53:39.866Z,2.50
2022-11-02T12:56:13.058Z,3.97
2022-11-02T12:58:43.091Z,2.33
2022-11-02T13:01:18.452Z,4.10
2022-11-02T13:03:52.879Z,3.03
2022-11-02T13:06:27.622Z,2.60
2022-11-02T13:09:00.106Z,5.70
2022-11-02T13:11:33.394Z,2.63
2022-11-02T13:14:05.973Z,4.50
2022-11-02T13:16:41.806Z,2.40
2022-11-02T13:19:16.794Z,4.93
2022-11-02T13:21:49.569Z,3.47
2022-11-02T13:24:23.004Z,4.53
2022-11-02T13:27:02.263Z,2.53
2022-11-02T13:29:47.661Z,3.73
2022-11-02T13:32:23.418Z,3.40
2022-11-02T13:34:53.644Z,4.50
2022-11-02T13:37:26.235Z,1.90
2022-11-02T13:39:57.649Z,2.63
2022-11-02T13:42:56.001Z,4.63
2022-11-02T13:45:56.347Z,3.53
2022-11-02T13:48:41.579Z,2.27
2022-11-02T13:51:20.658Z,3.00
2022-11-02T13:53:59.535Z,3.27
2022-11-02T13:56:30.079Z,2.53
2022-11-02T13:59:01.664Z,2.10
2022-11-02T14:01:33.212Z,2.97
2022-11-02T14:04:07.592Z,3.67
2022-11-02T14:06:47.211Z,2.23
2022-11-02T14:09:31.834Z,2.90
2022-11-02T14:12:30.596Z,2.30
2022-11-02T14:15:42.364Z,1.73
2022-11-02T14:18:16.160Z,4.20
2022-11-02T14:20:47.790Z,3.60
2022-11-02T14:23:38.855Z,5.70
2022-11-02T14:26:53.526Z,3.60
2022-11-02T14:29:52.224Z,3.20
2022-11-02T14:32:30.954Z,1.50
2022-11-02T14:35:15.658Z,4.40
2022-11-02T14:38:07.915Z,3.73
2022-11-02T14:40:47.809Z,3.57
2022-11-02T14:43:43.075Z,3.33
2022-11-02T14:46:23.172Z,3.03
2022-11-02T14:48:53.913Z,1.80
2022-11-02T14:51:24.900Z,2.70
2022-11-02T14:53:59.214Z,3.37
2022-11-02T14:56:48.977Z,2.77
2022-11-02T14:59:21.047Z,3.23
2022-11-02T15:01:55.446Z,2.17
2022-11-02T15:04:25.889Z,1.80
2022-11-02T15:06:56.924Z,2.53
2022-11-02T15:09:55.704Z,3.17
2022-11-02T15:12:37.515Z,5.07
2022-11-02T15:15:39.789Z,3.73
2022-11-02T15:18:24.755Z,5.83
2022-11-02T15:21:39.259Z,4.00
2022-11-02T15:24:18.601Z,5.47
2022-11-02T15:26:53.614Z,3.40
2022-11-02T15:29:37.118Z,3.90
2022-11-02T15:32:09.441Z,2.57
2022-11-02T15:34:42.883Z,3.30
2022-11-02T15:37:17.854Z,1.73
2022-11-02T15:39:49.945Z,2.80
2022-11-02T15:42:30.673Z,3.97
2022-11-02T15:45:48.521Z,3.30
2022-11-02T15:48:30.145Z,4.77
2022-11-02T15:51:06.365Z,3.30
2022-11-02T15:53:56.039Z,2.10
2022-11-02T15:56:52.473Z,2.20
2022-11-02T15:59:51.116Z,2.90
2022-11-02T16:02:24.589Z,1.70
2022-11-02T16:04:54.532Z,4.60
2022-11-02T16:07:29.168Z,3.27
2022-11-02T16:10:20.814Z,2.67
2022-11-02T16:12:56.662Z,2.23
2022-11-02T16:15:26.579Z,2.73
2022-11-02T16:17:55.224Z,2.00
2022-11-02T16:20:26.015Z,2.87
2022-11-02T16:22:57.249Z,1.90
2022-11-02T16:25:39.709Z,3.10
2022-11-02T16:28:21.919Z,1.90
2022-11-02T16:31:13.582Z,2.70
2022-11-02T16:33:46.986Z,2.73
2022-11-02T16:36:17.729Z,5.03
2022-11-02T16:38:54.997Z,2.97
2022-11-02T16:41:25.516Z,6.80
2022-11-02T16:43:54.392Z,8.03
2022-11-02T16:46:32.712Z,2.07
2022-11-02T16:49:15.166Z,3.73
2022-11-02T16:51:49.815Z,4.57
2022-11-02T16:54:24.855Z,6.67
2022-11-02T16:56:54.136Z,9.50
2022-11-02T16:59:23.763Z,9.90
2022-11-02T17:02:00.001Z,8.60
2022-11-02T17:04:30.723Z,8.83
2022-11-02T17:07:09.369Z,8.70
2022-11-02T17:09:37.830Z,9.47
2022-11-02T17:12:10.438Z,8.67
2022-11-02T17:14:43.067Z,13.50
2022-11-02T17:17:35.909Z,9.53
2022-11-02T17:20:19.107Z,10.90
2022-11-02T17:22:58.869Z,7.20
2022-11-02T17:25:28.731Z,9.00
2022-11-02T17:27:58.083Z,6.77
2022-11-02T17:30:45.226Z,7.10
2022-11-02T17:33:29.679Z,12.57
2022-11-02T17:36:04.202Z,14.40
2022-11-02T17:38:32.505Z,9.90
2022-11-02T17:41:01.701Z,11.23
2022-11-02T17:43:28.795Z,8.03
2022-11-02T17:45:58.133Z,7.20
2022-11-02T17:48:28.919Z,7.80
2022-11-02T17:50:59.624Z,7.57
2022-11-02T17:53:28.187Z,5.00
2022-11-02T17:55:56.470Z,9.43
2022-11-02T17:58:24.552Z,6.90
2022-11-02T18:00:54.711Z,9.40
2022-11-02T18:03:28.381Z,9.53
2022-11-02T18:06:00.871Z,10.53
2022-11-02T18:08:29.298Z,9.20
2022-11-02T18:10:57.489Z,7.20
2022-11-02T18:13:26.157Z,12.07
2022-11-02T18:15:54.279Z,8.23
2022-11-02T18:18:22.392Z,13.17
2022-11-02T18:20:50.493Z,7.50
2022-11-02T18:23:20.432Z,6.87
2022-11-02T18:25:48.732Z,4.63
2022-11-02T18:28:16.988Z,9.33
2022-11-02T18:30:45.290Z,6.83
2022-11-02T18:33:14.431Z,6.00
2022-11-02T18:35:44.205Z,8.53
2022-11-02T18:38:12.984Z,6.47
2022-11-02T18:40:42.561Z,4.77
2022-11-02T18:43:10.802Z,5.23
2022-11-02T18:45:38.942Z,5.23
2022-11-02T18:48:10.256Z,4.43
2022-11-02T18:50:38.348Z,6.70
2022-11-02T18:53:06.470Z,5.43
2022-11-02T18:55:34.594Z,5.63
2022-11-02T18:58:04.531Z,6.20
2022-11-02T19:00:32.890Z,4.80
2022-11-02T19:03:01.025Z,6.37
2022-11-02T19:05:46.791Z,5.53
2022-11-02T19:08:46.999Z,7.80
2022-11-02T19:11:15.301Z,8.07
2022-11-02T19:13:44.771Z,6.67
2022-11-02T19:16:13.067Z,9.50
2022-11-02T19:18:41.213Z,8.97
2022-11-02T19:21:09.289Z,8.07
2022-11-02T19:23:37.387Z,6.57
2022-11-02T19:26:05.806Z,6.73
2022-11-02T19:28:34.386Z,9.77
2022-11-02T19:31:08.224Z,12.67
2022-11-02T19:33:38.963Z,7.77
2022-11-02T19:36:07.530Z,14.70
2022-11-02T19:38:37.571Z,8.13
2022-11-02T19:41:10.455Z,7.20
2022-11-02T19:43:39.812Z,12.40
2022-11-02T19:46:11.997Z,10.87
2022-11-02T19:48:41.038Z,9.07
2022-11-02T19:51:13.337Z,8.60
2022-11-02T19:53:46.110Z,10.80
2022-11-02T19:56:18.980Z,8.87
2022-11-02T19:58:48.504Z,7.77
2022-11-02T20:01:20.152Z,9.13
2022-11-02T20:03:52.152Z,7.67
2022-11-02T20:06:21.832Z,9.23
2022-11-02T20:08:51.507Z,8.17
2022-11-02T20:11:20.307Z,7.53
2022-11-02T20:13:49.509Z,10.53
2022-11-02T20:16:21.029Z,5.97
2022-11-02T20:18:50.976Z,12.93
2022-11-02T20:21:21.619Z,6.50
2022-11-02T20:23:50.324Z,6.23
2022-11-02T20:26:21.265Z,10.47
2022-11-02T20:28:50.008Z,11.43
2022-11-02T20:31:21.431Z,11.53
2022-11-02T20:33:50.633Z,10.97
2022-11-02T20:36:19.351Z,11.40
2022-11-02T20:38:49.145Z,9.70
2022-11-02T20:41:19.043Z,14.87
2022-11-02T20:43:48.812Z,9.87
2022-11-02T20:49:22.062Z,11.83
2022-11-02T20:51:58.102Z,12.00
2022-11-02T20:54:29.509Z,10.10
2022-11-02T20:56:57.953Z,11.63
2022-11-02T20:59:26.440Z,8.43
2022-11-02T21:01:56.067Z,8.47
2022-11-02T21:04:24.292Z,6.47
2022-11-02T21:06:52.641Z,12.80
2022-11-02T21:09:21.025Z,8.10
2022-11-02T21:12:06.994Z,9.63
2022-11-02T21:14:35.083Z,10.30
2022-11-02T21:17:06.701Z,9.37
2022-11-02T21:19:34.948Z,14.27
2022-11-02T21:22:03.068Z,7.80
2022-11-02T21:24:31.311Z,9.87
2022-11-02T21:26:59.674Z,11.67
2022-11-02T21:29:28.010Z,10.80
2022-11-02T21:31:56.269Z,6.70
2022-11-02T21:34:26.141Z,7.27
2022-11-02T21:36:54.328Z,8.77
2022-11-02T21:39:22.473Z,8.70
2022-11-02T21:41:50.594Z,11.10
2022-11-02T21:44:18.716Z,8.97
2022-11-02T21:46:46.771Z,10.50
2022-11-02T21:49:14.919Z,6.07
2022-11-02T21:51:44.446Z,9.10
2022-11-02T21:54:12.671Z,7.00
2022-11-02T21:56:40.759Z,7.30
2022-11-02T21:59:09.530Z,6.77
2022-11-02T22:01:47.180Z,8.10
2022-11-02T22:04:17.311Z,6.90
2022-11-02T22:06:46.884Z,7.80
2022-11-02T22:09:15.539Z,8.33
2022-11-02T22:11:44.971Z,6.23
2022-11-02T22:14:12.602Z,6.00
2022-11-02T22:16:44.597Z,6.93
2022-11-02T22:19:14.394Z,7.17
2022-11-02T22:21:44.365Z,6.90
2022-11-02T22:24:13.990Z,6.30
2022-11-02T22:26:42.547Z,6.93
2022-11-02T22:29:10.821Z,6.73
2022-11-02T22:31:41.627Z,7.20
2022-11-02T22:34:11.458Z,7.57
2022-11-02T22:36:41.535Z,5.70
2022-11-02T22:39:11.900Z,7.53
2022-11-02T22:41:42.915Z,6.17
2022-11-02T22:44:12.549Z,5.67
2022-11-02T22:46:41.864Z,6.90
2022-11-02T22:49:11.896Z,5.90
2022-11-02T22:51:42.037Z,8.00
2022-11-02T22:54:13.644Z,5.70
2022-11-02T22:56:43.455Z,4.60
2022-11-02T22:59:11.865Z,6.53
2022-11-02T23:01:40.749Z,5.53
2022-11-02T23:04:10.909Z,6.47
2022-11-02T23:06:39.143Z,6.47
2022-11-02T23:09:07.492Z,5.70
2022-11-02T23:11:36.283Z,5.50
2022-11-02T23:14:08.004Z,6.03
2022-11-02T23:16:38.197Z,6.73
2022-11-02T23:19:25.151Z,5.30
2022-11-02T23:22:14.733Z,6.47
2022-11-02T23:25:01.821Z,6.03
2022-11-02T23:27:30.161Z,5.90
2022-11-02T23:30:16.854Z,8.23
2022-11-02T23:32:45.043Z,7.27
2022-11-02T23:35:30.552Z,7.40
2022-11-02T23:38:07.605Z,5.97
2022-11-02T23:40:35.736Z,5.03
2022-11-02T23:43:05.013Z,7.50
2022-11-02T23:45:34.678Z,8.40
2022-11-02T23:48:06.957Z,5.53
2022-11-02T23:50:53.434Z,5.00
2022-11-02T23:53:40.161Z,6.13
2022-11-02T23:56:31.668Z,6.77
2022-11-02T23:59:07.285Z,6.10
